Latest Weather Observations for Wangaratta

IDV60801

Issued at 3:31 pm EST Wednesday 4 May 2016 (issued every 30 minutes, with the page automatically refreshed every 10 minutes)

About weather observations | Map of weather stations | Latest weather observations for VIC | Other Formats
Station Details ID: 082138 Name: WANGARATTA AERO Lat: -36.42 Lon: 146.31 Height: 152.6 m
Data from the previous 72 hours. | See also: Recent months at Wangaratta
Date/Time
EST
Temp
°C
App
Temp
°C
Dew
Point
Rel
Hum
%
Delta-T
°C
Wind Press
QNH
hPa
Press
MSL
hPa
Rain
since 9 am
mm
Dir
 
Spd
km/h
Gust
km/h
Spd
kts
Gust
kts
04/03:30pm 14.6 10.6 4.9 52 4.6 W 15 22 8 12 1017.1 1017.3 0.0
04/03:00pm 15.8 11.5 3.3 43 5.7 WNW 15 20 8 11 1017.0 1017.2 0.0
04/02:30pm 15.7 11.2 4.4 47 5.3 W 17 24 9 13 1016.7 1016.9 0.0
04/02:00pm 15.8 12.4 3.9 45 5.5 NNW 11 17 6 9 1016.6 1016.7 0.0
04/01:30pm 15.4 12.8 3.2 44 5.6 N 6 11 3 6 1016.7 1016.9 0.0
04/01:00pm 15.3 11.6 4.4 48 5.1 NW 13 17 7 9 1016.8 1017.0 0.0
04/12:30pm 14.2 11.0 5.0 54 4.3 WNW 11 17 6 9 1017.2 1017.4 0.0
04/12:00pm 14.9 12.5 5.4 53 4.5 NNW 7 13 4 7 1017.4 1017.6 0.0
04/11:30am 14.2 11.8 6.8 61 3.6 WNW 9 13 5 7 1017.6 1017.8 0.0
04/11:00am 13.9 11.5 7.2 64 3.3 WSW 9 19 5 10 1017.7 1017.9 0.0
04/10:30am 13.9 11.4 6.7 62 3.5 WNW 9 15 5 8 1017.5 1017.7 0.0
04/10:00am 13.5 11.4 6.8 64 3.3 NNE 7 9 4 5 1017.4 1017.6 0.0
04/09:30am 12.7 11.7 7.4 70 2.6 WSW 2 7 1 4 1017.0 1017.2 0.0
04/09:00am 12.5 12.1 8.2 75 2.1 CALM 0 0 0 0 1016.9 1017.1 1.0
04/08:30am 12.1 11.9 8.9 81 1.6 CALM 0 0 0 0 1016.8 1017.0 1.0
04/08:00am 10.3 7.9 8.6 89 0.8 W 11 15 6 8 1016.4 1016.5 1.0
04/07:30am 9.5 7.0 8.3 92 0.6 SW 11 13 6 7 1016.0 1016.1 1.0
04/07:00am 9.5 7.9 8.1 91 0.7 SW 6 9 3 5 1015.3 1015.4 1.0
04/06:30am 9.8 8.1 8.2 90 0.8 WSW 7 9 4 5 1014.8 1014.9 1.0
04/06:18am 9.9 7.4 8.3 90 0.8 WSW 11 17 6 9 1014.7 1014.8 1.0
04/06:00am 10.3 6.7 8.4 88 0.9 WSW 17 26 9 14 1014.4 1014.5 1.0
04/05:30am 10.7 5.9 8.8 88 0.9 W 24 32 13 17 1014.0 1014.1 1.0
04/05:01am 10.7 5.8 8.6 87 1.0 W 24 30 13 16 1013.3 1013.4 1.0
04/05:00am 10.7 5.8 8.6 87 1.0 W 24 30 13 16 1013.2 1013.3 1.0
04/04:34am 11.1 7.1 9.0 87 1.1 W 20 28 11 15 1012.8 1012.9 1.0
04/04:30am 11.0 6.6 9.1 88 1.0 W 22 28 12 15 1012.7 1012.8 1.0
04/04:00am 11.3 8.3 9.2 87 1.1 W 15 22 8 12 1012.4 1012.5 1.0
04/03:31am 11.2 9.0 9.3 88 1.0 NW 11 13 6 7 1012.1 1012.2 1.0
04/03:30am 11.3 9.1 9.4 88 1.0 NW 11 13 6 7 1012.1 1012.2 1.0
04/03:00am 11.2 9.6 8.9 86 1.2 NNW 7 13 4 7 1011.9 1012.0 1.0
04/02:30am 11.4 9.9 9.1 86 1.2 WNW 7 13 4 7 1011.8 1011.9 1.0
04/02:00am 11.5 11.1 9.9 90 0.8 NW 2 6 1 3 1011.4 1011.6 0.8
04/01:30am 11.8 10.8 10.4 91 0.7 WNW 6 9 3 5 1011.3 1011.5 0.8
04/01:00am 11.9 11.0 10.8 93 0.6 NNW 6 7 3 4 1011.0 1011.1 0.8
04/12:38am 12.0 11.0 10.9 93 0.6 W 7 11 4 6 1010.6 1010.7 0.8
04/12:30am 12.0 10.3 11.1 94 0.5 WSW 11 20 6 11 1010.7 1010.8 0.8
04/12:00am 12.9 9.2 11.5 91 0.7 W 22 37 12 20 1010.5 1010.6 0.4
 
Date/Time
EST
Temp
°C
App
Temp
°C
Dew
Point
Rel
Hum
%
Delta-T
°C
Wind Press
QNH
hPa
Press
MSL
hPa
Rain
since 9 am
mm
Dir
 
Spd
km/h
Gust
km/h
Spd
kts
Gust
kts
03/11:52pm 13.0 10.3 11.6 91 0.7 W 17 24 9 13 1010.3 1010.4 0.4
03/11:39pm 13.1 9.8 11.5 90 0.9 WSW 20 32 11 17 1010.2 1010.3 0.4
03/11:30pm 13.3 10.3 12.0 92 0.7 W 19 28 10 15 1010.1 1010.2 0.4
03/11:13pm 13.9 10.6 11.6 86 1.2 W 20 28 11 15 1010.1 1010.2 0.2
03/11:00pm 14.2 10.9 11.5 84 1.5 W 20 28 11 15 1010.0 1010.1 0.2
03/10:30pm 14.5 13.9 11.8 84 1.5 NW 6 11 3 6 1009.8 1009.9 0.2
03/10:00pm 14.5 13.5 12.2 86 1.3 N 9 11 5 6 1009.6 1009.7 0.2
03/09:30pm 14.3 13.7 12.3 88 1.1 N 7 9 4 5 1009.5 1009.6 0.2
03/09:00pm 14.2 13.3 12.6 90 0.9 NNE 9 13 5 7 1009.3 1009.4 0.2
03/08:30pm 14.0 13.1 12.7 92 0.7 NNE 9 11 5 6 1009.0 1009.1 0.2
03/08:00pm 13.9 13.0 12.6 92 0.7 NNE 9 15 5 8 1008.8 1008.9 0.2
03/07:30pm 14.3 11.4 12.3 88 1.1 NW 19 28 10 15 1008.5 1008.6 0.0
03/07:06pm 14.1 12.1 12.8 92 0.7 W 15 20 8 11 1008.5 1008.6 0.0
03/07:00pm 14.0 11.7 12.9 93 0.6 W 17 20 9 11 1008.5 1008.6 0.0
03/06:39pm 14.2 11.2 12.4 89 1.0 W 20 30 11 16 1008.3 1008.4 0.0
03/06:31pm 14.5 9.9 12.2 86 1.3 W 28 46 15 25 1008.2 1008.3 0.0
03/06:30pm 14.6 9.6 12.1 85 1.4 W 30 46 16 25 1008.1 1008.2 0.0
03/06:03pm 17.8 12.2 8.9 56 4.7 WNW 28 48 15 26 1007.1 1007.2 0.0
03/06:00pm 18.2 12.8 8.2 52 5.2 WNW 26 35 14 19 1007.0 1007.1 0.0
03/05:30pm 18.8 11.9 7.3 47 5.9 WNW 33 43 18 23 1006.3 1006.4 0.0
03/05:00pm 19.5 13.6 5.9 41 6.8 NW 26 35 14 19 1005.6 1005.6 0.0
03/04:32pm 20.0 13.5 4.9 37 7.4 NW 28 50 15 27 1004.9 1004.9 0.0
03/04:30pm 20.0 13.5 4.9 37 7.4 NW 28 41 15 22 1005.0 1005.0 0.0
03/04:00pm 20.4 13.9 4.8 36 7.7 NNW 28 43 15 23 1004.6 1004.7 0.0
03/03:30pm 21.5 13.6 4.6 33 8.3 NNW 35 50 19 27 1004.6 1004.7 0.0
03/03:28pm 21.4 13.8 4.0 32 8.5 NNW 33 50 18 27 1004.5 1004.6 0.0
03/03:00pm 21.5 13.6 4.6 33 8.4 NNW 35 50 19 27 1004.6 1004.7 0.0
03/02:30pm 21.5 14.0 4.6 33 8.3 NNW 33 54 18 29 1005.0 1005.0 0.0
03/02:15pm 21.4 14.2 4.9 34 8.2 NW 32 50 17 27 1005.2 1005.2 0.0
03/02:00pm 21.4 13.5 4.5 33 8.3 NW 35 50 19 27 1005.4 1005.4 0.0
03/01:30pm 21.3 13.6 5.2 35 8.0 NNW 35 44 19 24 1005.8 1005.9 0.0
03/01:15pm 20.9 14.4 4.9 35 7.9 NNW 28 48 15 26 1005.9 1006.0 0.0
03/01:00pm 20.4 13.2 5.2 37 7.5 NNW 32 46 17 25 1006.2 1006.3 0.0
03/12:30pm 20.0 12.9 5.3 38 7.3 NNW 32 43 17 23 1006.7 1006.8 0.0
03/12:00pm 19.3 13.1 6.1 42 6.6 NNW 28 39 15 21 1007.4 1007.5 0.0
03/11:30am 18.5 12.5 7.0 47 5.8 NNW 28 37 15 20 1007.8 1007.9 0.0
03/11:00am 17.1 11.3 6.3 49 5.3 N 26 33 14 18 1008.3 1008.4 0.0
03/10:30am 15.5 11.1 6.5 55 4.4 N 19 24 10 13 1009.1 1009.2 0.0
03/10:00am 14.1 9.7 6.7 61 3.6 N 19 24 10 13 1009.7 1009.8 0.0
03/09:30am 13.2 9.2 6.5 64 3.2 N 17 22 9 12 1010.1 1010.2 0.0
03/09:00am 12.2 8.9 6.3 67 2.8 N 13 19 7 10 1010.3 1010.4 0.0
03/08:30am 12.1 8.0 6.4 68 2.7 N 17 22 9 12 1010.3 1010.4 0.0
03/08:00am 11.9 8.3 6.6 70 2.5 N 15 22 8 12 1010.4 1010.5 0.0
03/07:30am 11.1 7.0 6.3 72 2.3 N 17 22 9 12 1010.3 1010.4 0.0
03/07:00am 11.1 6.6 6.3 72 2.3 N 19 22 10 12 1010.4 1010.5 0.0
03/06:30am 11.1 7.0 6.3 72 2.3 N 17 20 9 11 1010.4 1010.5 0.0
03/06:00am 11.0 8.1 6.4 73 2.2 N 11 17 6 9 1010.7 1010.8 0.0
03/05:30am 11.0 7.3 6.4 73 2.2 N 15 20 8 11 1010.8 1010.9 0.0
03/05:00am 10.8 7.5 6.2 73 2.2 NNW 13 17 7 9 1010.9 1011.0 0.0
03/04:30am 10.8 7.0 6.0 72 2.2 NNW 15 19 8 10 1011.0 1011.1 0.0
03/04:00am 10.8 7.4 5.8 71 2.3 NNW 13 19 7 10 1011.0 1011.1 0.0
03/03:30am 10.9 7.5 5.9 71 2.3 NNW 13 19 7 10 1011.1 1011.2 0.0
03/03:00am 11.1 7.3 6.0 71 2.4 N 15 19 8 10 1011.4 1011.6 0.0
03/02:30am 10.9 7.5 6.1 72 2.3 NNW 13 17 7 9 1011.8 1011.9 0.0
03/02:00am 10.5 7.5 6.1 74 2.1 NNW 11 15 6 8 1012.1 1012.2 0.0
03/01:30am 10.1 7.4 5.7 74 2.0 NNW 9 11 5 6 1012.3 1012.4 0.0
03/01:00am 10.7 8.1 5.9 72 2.2 N 9 13 5 7 1012.7 1012.8 0.0
03/12:30am 10.9 7.9 5.9 71 2.3 NNW 11 13 6 7 1013.0 1013.1 0.0
03/12:00am 11.0 8.4 6.0 71 2.3 NNW 9 13 5 7 1013.2 1013.3 0.0
 
Date/Time
EST
Temp
°C
App
Temp
°C
Dew
Point
Rel
Hum
%
Delta-T
°C
Wind Press
QNH
hPa
Press
MSL
hPa
Rain
since 9 am
mm
Dir
 
Spd
km/h
Gust
km/h
Spd
kts
Gust
kts
02/11:30pm 11.7 8.3 6.0 68 2.7 N 13 15 7 8 1013.2 1013.3 0.0
02/11:00pm 12.3 9.8 6.4 67 2.8 N 9 11 5 6 1013.6 1013.7 0.0
02/10:30pm 11.9 9.8 6.6 70 2.5 NNW 7 11 4 6 1013.9 1014.0 0.0
02/10:00pm 11.5 9.9 7.8 78 1.8 N 6 9 3 5 1013.9 1014.0 0.0
02/09:30pm 10.7 10.4 8.5 86 1.1 CALM 0 2 0 1 1014.1 1014.2 0.0
02/09:00pm 11.9 9.8 6.8 71 2.5 N 7 9 4 5 1014.0 1014.1 0.0
02/08:30pm 11.5 9.6 7.6 77 1.9 N 7 11 4 6 1013.8 1013.9 0.0
02/08:00pm 11.6 9.9 7.7 77 1.9 NNE 6 7 3 4 1013.9 1014.0 0.0
02/07:30pm 12.3 11.4 7.8 74 2.2 NNE 2 6 1 3 1013.8 1013.9 0.0
02/07:00pm 13.7 11.8 6.6 62 3.4 N 6 7 3 4 1013.9 1014.0 0.0
02/06:30pm 13.9 11.3 6.3 60 3.7 N 9 11 5 6 1013.8 1013.9 0.0
02/06:00pm 13.7 11.3 6.8 63 3.4 N 9 11 5 6 1013.7 1013.8 0.0
02/05:30pm 14.4 12.0 7.0 61 3.6 N 9 11 5 6 1013.7 1013.8 0.0
02/05:00pm 15.2 12.2 6.2 55 4.4 N 11 15 6 8 1013.6 1013.7 0.0
02/04:30pm 15.4 12.5 6.4 55 4.4 N 11 17 6 9 1013.8 1013.9 0.0
02/04:00pm 15.5 11.6 5.4 51 4.8 N 15 20 8 11 1013.8 1013.9 0.0
02/03:30pm 15.5 11.4 6.2 54 4.5 N 17 22 9 12 1013.9 1014.0 0.0
02/03:00pm 15.4 10.8 5.6 52 4.7 NNW 19 24 10 13 1014.2 1014.3 0.0
02/02:30pm 15.1 10.2 5.0 51 4.8 N 20 28 11 15 1014.1 1014.2 0.0
02/02:00pm 15.0 10.3 6.0 55 4.4 N 20 30 11 16 1014.1 1014.2 0.0
02/01:30pm 14.5 8.9 5.6 55 4.3 N 24 30 13 16 1014.3 1014.4 0.0
02/01:00pm 14.4 9.8 6.7 60 3.8 N 20 30 11 16 1014.8 1014.9 0.0
02/12:30pm 13.9 9.4 7.0 63 3.4 N 20 30 11 16 1015.2 1015.3 0.0
02/12:00pm 13.0 9.5 7.0 67 2.9 N 15 20 8 11 1015.8 1015.9 0.0
02/11:30am 12.0 9.5 8.1 77 1.9 N 11 15 6 8 1016.1 1016.2 0.0
02/11:00am 10.3 8.2 8.2 87 1.0 NE 9 11 5 6 1016.6 1016.7 0.0
02/10:30am 9.1 8.6 7.9 92 0.6 CALM 0 4 0 2 1016.9 1017.1 0.0
02/10:11am 8.4 7.6 8.1 98 0.1 N 2 6 1 3 1016.9 1017.1 0.0
02/10:00am 8.1 7.3 8.0 99 0.0 NE 2 6 1 3 1016.9 1017.1 0.0
02/09:36am 7.2 6.5 7.1 99 0.0 CALM 0 6 0 3 1017.2 1017.4 0.0
02/09:30am 7.1 6.4 7.0 99 0.0 CALM 0 0 0 0 1017.2 1017.4 0.0
02/09:00am 6.2 4.9 6.1 99 0.0 ENE 2 6 1 3 1017.3 1017.5 0.0
02/08:30am 5.6 4.2 5.5 99 0.0 NE 2 6 1 3 1017.4 1017.6 0.0
02/08:18am 5.4 3.6 5.3 99 0.0 NE 4 6 2 3 1017.3 1017.5 0.0
02/08:14am 5.5 4.1 5.4 99 0.0 ENE 2 6 1 3 1017.3 1017.5 0.0
02/08:00am 5.3 4.2 5.2 99 0.0 CALM 0 6 0 3 1017.4 1017.6 0.0
02/07:49am 5.2 4.1 5.1 99 0.0 CALM 0 0 0 0 1017.4 1017.6 0.0
02/07:30am 4.5 3.3 4.4 99 0.0 CALM 0 0 0 0 1017.1 1017.3 0.0
02/07:20am 4.0 2.7 3.9 99 0.0 CALM 0 0 0 0 1017.0 1017.2 0.0
02/07:00am 3.6 1.4 3.5 99 0.0 SW 4 6 2 3 1017.1 1017.3 0.0
02/06:57am 3.6 1.4 3.5 99 0.0 SW 4 6 2 3 1017.1 1017.3 0.0
02/06:48am 3.7 1.2 3.6 99 0.0 SW 6 7 3 4 1016.9 1017.1 0.0
02/06:30am 3.9 1.4 3.8 99 0.0 SW 6 7 3 4 1016.7 1016.9 0.0
02/06:24am 3.7 1.0 3.6 99 0.0 SW 7 7 4 4 1016.8 1017.0 0.0
02/06:00am 3.7 2.3 3.6 99 0.0 CALM 0 2 0 1 1016.9 1017.1 0.0
02/05:30am 3.9 2.2 3.8 99 0.0 S 2 7 1 4 1016.8 1017.0 0.0
02/05:00am 4.3 3.0 4.2 99 0.0 CALM 0 0 0 0 1016.7 1016.9 0.0
02/04:30am 5.0 3.9 4.9 99 0.0 CALM 0 0 0 0 1016.5 1016.6 0.0
02/04:02am 5.2 3.3 5.1 99 0.0 S 4 6 2 3 1016.4 1016.5 0.0
02/04:00am 5.0 3.1 4.9 99 0.0 S 4 6 2 3 1016.4 1016.5 0.0
02/03:33am 5.4 3.2 5.1 98 0.1 SW 6 7 3 4 1016.2 1016.3 0.0
02/03:30am 5.3 3.0 5.0 98 0.1 WSW 6 7 3 4 1016.1 1016.2 0.0
02/03:14am 5.3 3.0 5.0 98 0.1 SW 6 7 3 4 1016.3 1016.4 0.0
02/03:00am 6.1 3.8 5.8 98 0.1 S 7 9 4 5 1016.3 1016.4 0.0
02/02:58am 6.1 3.8 5.8 98 0.1 S 7 9 4 5 1016.3 1016.4 0.0
02/02:30am 5.9 3.7 5.5 97 0.2 SW 6 7 3 4 1016.7 1016.9 0.0
02/02:00am 6.6 4.5 5.9 95 0.3 SE 6 7 3 4 1016.7 1016.9 0.0
02/01:30am 6.7 4.6 5.7 93 0.4 ESE 6 9 3 5 1017.0 1017.2 0.0
02/01:00am 7.2 5.5 5.8 91 0.6 SE 4 7 2 4 1017.1 1017.3 0.0
02/12:30am 7.4 5.0 5.2 86 1.0 ESE 7 9 4 5 1017.4 1017.6 0.0
02/12:00am 8.5 7.1 5.3 80 1.4 SE 2 7 1 4 1017.4 1017.6 0.0
 
Date/Time
EST
Temp
°C
App
Temp
°C
Dew
Point
Rel
Hum
%
Delta-T
°C
Wind Press
QNH
hPa
Press
MSL
hPa
Rain
since 9 am
mm
Dir
 
Spd
km/h
Gust
km/h
Spd
kts
Gust
kts
01/11:30pm 9.4 8.5 5.9 79 1.6 CALM 0 0 0 0 1017.5 1017.7 0.0
01/11:00pm 9.9 8.3 6.4 79 1.6 N 4 11 2 6 1017.4 1017.6 0.0
01/10:30pm 9.9 9.1 6.6 80 1.6 CALM 0 0 0 0 1017.5 1017.7 0.0
01/10:00pm 10.8 8.3 6.7 76 1.9 NW 9 11 5 6 1017.5 1017.7 0.0
01/09:30pm 10.4 7.6 6.9 79 1.7 WNW 11 13 6 7 1017.3 1017.5 0.0
01/09:00pm 11.2 8.0 6.9 75 2.1 NW 13 15 7 8 1017.0 1017.2 0.0
01/08:30pm 11.5 8.0 7.0 74 2.2 WNW 15 17 8 9 1016.7 1016.9 0.0
01/08:00pm 12.6 8.9 6.4 66 3.0 NW 15 20 8 11 1016.5 1016.6 0.0
01/07:30pm 13.4 9.8 6.7 64 3.3 WNW 15 19 8 10 1016.1 1016.2 0.0
01/07:00pm 14.0 10.7 6.4 60 3.7 W 13 17 7 9 1015.9 1016.0 0.0
01/06:30pm 14.1 9.6 6.2 59 3.8 WNW 19 28 10 15 1015.5 1015.6 0.0
01/06:00pm 13.9 10.1 6.0 59 3.8 WNW 15 22 8 12 1014.9 1015.0 0.0
01/05:30pm 14.1 9.5 5.7 57 4.0 WNW 19 24 10 13 1014.4 1014.5 0.0
01/05:00pm 14.9 9.0 6.0 55 4.3 W 26 39 14 21 1014.0 1014.1 0.0
01/04:30pm 15.4 10.0 6.2 54 4.5 W 24 37 13 20 1013.6 1013.7 0.0
01/04:07pm 15.9 9.6 5.5 50 5.0 WNW 28 48 15 26 1013.3 1013.4 0.0
01/04:00pm 15.8 9.9 6.0 52 4.8 WNW 26 37 14 20 1013.3 1013.4 0.0

Other Formats:

Comma delimited format used in spreadsheet applications
http://www.bom.gov.au/fwo/IDV60801/IDV60801.94889.axf

JavaScript Object Notation format (JSON) in row-major order
http://www.bom.gov.au/fwo/IDV60801/IDV60801.94889.json